Archival Weather

Chicago O'Hare International

Chicago, Illinois (KORD)

Report from: Wednesday, December 28, 2022 5:51 PM CST
Current time: Friday, June 14, 2024 8:41 AM CDT

Current weather – Weather history – Daily summaries
Weather forecast

Temperature6.7°C (44.1°F)
Wind chill2.5°C (36.4°F)
Dew point0.6°C (33.1°F)
Winds 15 kts (7.7 m/s, 17.3 mph) South (190°)
Wind gusts 28 kts (14.4 m/s, 32.2 mph)
Peak wind 33 kts (17 m/s, 38 mph) South-Southwest (200°) at 23:36
Visibility10 mi. (16.1 km)
Clouds Ceiling: Broken clouds 13,000 ft. (3,962 m)
Broken clouds 25,000 ft. (7,620 m)
Overcast 35,000 ft. (10,668 m)
Altimeter29.73 in.Hg (1007 mB)
Relative humidity65 %
Density altitude-696 ft. (-212 m)
Sea-level pressure100.7 kPa (1007 mB, 29.74 in.Hg)
Max temp last 6 hours7.2°C (45.0°F)
Min temp last 6 hours4.4°C (39.9°F)
Remarks Automated weather observing station with precipitation discriminator
Pressure rising more quickly
Flight conditions Visual Meteorological Conditions
Raw dataKORD 282351Z 19015G28KT 10SM BKN130 BKN250 OVC350 07/01 A2973 RMK AO2 PK WND 20033/2336 SLP072 T00670006 10072 20044 53004
An error has occurred. This application may no longer respond until reloaded. Reload 🗙